createdAt,value
2018-04-12T00:00:47.084Z,12.60
2018-04-12T00:03:14.685Z,12.60
2018-04-12T00:05:41.656Z,12.60
2018-04-12T00:08:08.518Z,12.60
2018-04-12T00:10:35.440Z,12.60
2018-04-12T00:13:02.293Z,12.40
2018-04-12T00:15:29.214Z,12.40
2018-04-12T00:17:56.185Z,12.50
2018-04-12T00:20:23.050Z,12.50
2018-04-12T00:22:49.965Z,12.40
2018-04-12T00:25:16.953Z,12.50
2018-04-12T00:27:44.677Z,12.40
2018-04-12T00:30:11.597Z,12.40
2018-04-12T00:32:38.515Z,12.40
2018-04-12T00:35:05.437Z,12.40
2018-04-12T00:37:32.404Z,12.50
2018-04-12T00:39:59.265Z,12.40
2018-04-12T00:42:26.225Z,12.30
2018-04-12T00:44:53.149Z,12.30
2018-04-12T00:47:20.739Z,12.40
2018-04-12T00:49:47.665Z,12.40
2018-04-12T00:52:14.585Z,12.30
2018-04-12T00:54:41.587Z,12.30
2018-04-12T00:57:08.445Z,12.20
2018-04-12T00:59:35.364Z,12.10
2018-04-12T01:02:02.233Z,12.20
2018-04-12T01:04:29.165Z,12.30
2018-04-12T01:06:56.088Z,12.20
2018-04-12T01:09:22.953Z,12.20
2018-04-12T01:11:49.897Z,12.10
2018-04-12T01:14:16.813Z,12.10
2018-04-12T01:16:43.740Z,12.20
2018-04-12T01:19:10.705Z,12.20
2018-04-12T01:21:37.565Z,12.00
2018-04-12T01:24:04.503Z,12.20
2018-04-12T01:26:31.436Z,12.20
2018-04-12T01:28:59.089Z,12.10
2018-04-12T01:31:25.957Z,12.10
2018-04-12T01:33:52.897Z,12.20
2018-04-12T01:36:20.495Z,12.20
2018-04-12T01:38:47.349Z,12.20
2018-04-12T01:41:14.273Z,12.30
2018-04-12T01:43:41.197Z,12.10
2018-04-12T01:46:08.061Z,12.30
2018-04-12T01:48:34.979Z,12.40
2018-04-12T01:51:01.912Z,12.40
2018-04-12T01:53:28.845Z,12.40
2018-04-12T01:55:55.707Z,12.30
2018-04-12T01:58:22.574Z,12.30
2018-04-12T02:00:49.595Z,12.40
2018-04-12T02:03:16.457Z,12.40
2018-04-12T02:05:43.391Z,12.40
2018-04-12T02:08:10.252Z,12.30
2018-04-12T02:10:37.178Z,12.30
2018-04-12T02:13:04.160Z,12.30
2018-04-12T02:15:31.092Z,12.20
2018-04-12T02:17:58.004Z,12.20
2018-04-12T02:20:24.866Z,12.20
2018-04-12T02:22:51.805Z,12.20
2018-04-12T02:25:18.729Z,12.10
2018-04-12T02:27:45.699Z,12.20
2018-04-12T02:30:13.414Z,12.00
2018-04-12T02:32:40.283Z,12.00
2018-04-12T02:35:07.211Z,12.00
2018-04-12T02:37:34.073Z,12.00
2018-04-12T02:40:00.983Z,12.10
2018-04-12T02:42:27.853Z,12.20
2018-04-12T02:44:55.324Z,12.20
2018-04-12T02:47:22.240Z,12.20
2018-04-12T02:49:49.093Z,12.20
2018-04-12T02:52:16.010Z,12.40
2018-04-12T02:54:42.869Z,12.30
2018-04-12T02:57:09.721Z,12.20
2018-04-12T02:59:36.630Z,12.20
2018-04-12T03:02:03.554Z,12.30
2018-04-12T03:04:30.530Z,12.30
2018-04-12T03:06:57.380Z,12.40
2018-04-12T03:09:24.317Z,12.40
2018-04-12T03:11:51.233Z,12.40
2018-04-12T03:14:18.083Z,12.40
2018-04-12T03:16:44.992Z,12.30
2018-04-12T03:19:11.847Z,12.40
2018-04-12T03:21:38.761Z,12.30
2018-04-12T03:24:05.697Z,12.30
2018-04-12T03:26:32.604Z,12.40
2018-04-12T03:28:59.459Z,12.40
2018-04-12T03:31:27.305Z,12.40
2018-04-12T03:33:54.194Z,12.40
2018-04-12T03:36:21.043Z,12.40
2018-04-12T03:38:47.962Z,12.30
2018-04-12T03:41:15.562Z,12.30
2018-04-12T03:43:42.479Z,12.20
2018-04-12T03:46:09.402Z,12.10
2018-04-12T03:48:36.387Z,12.30
2018-04-12T03:51:03.289Z,12.30
2018-04-12T03:53:30.199Z,12.30
2018-04-12T03:55:57.137Z,12.30
2018-04-12T03:58:24.052Z,12.10
2018-04-12T04:00:50.969Z,12.10
2018-04-12T04:03:17.823Z,12.10
2018-04-12T04:05:44.744Z,12.20
2018-04-12T04:08:11.602Z,12.10
2018-04-12T04:10:38.527Z,11.90
2018-04-12T04:13:05.453Z,11.90
2018-04-12T04:15:45.384Z,12.10
2018-04-12T04:18:24.522Z,12.00
2018-04-12T04:21:10.482Z,12.10
2018-04-12T04:23:37.478Z,12.10
2018-04-12T04:26:06.852Z,12.10
2018-04-12T04:31:18.948Z,12.00
2018-04-12T04:33:45.868Z,12.00
2018-04-12T04:36:12.815Z,12.00
2018-04-12T04:38:39.685Z,12.10
2018-04-12T04:41:06.615Z,12.20
2018-04-12T04:43:33.481Z,12.20
2018-04-12T04:46:01.005Z,12.20
2018-04-12T04:48:27.865Z,12.10
2018-04-12T04:50:54.847Z,12.10
2018-04-12T04:53:21.703Z,12.20
2018-04-12T04:55:48.567Z,12.10
2018-04-12T04:58:15.490Z,12.10
2018-04-12T05:00:42.382Z,12.20
2018-04-12T05:03:09.374Z,12.20
2018-04-12T05:05:36.322Z,12.40
2018-04-12T05:08:03.310Z,12.40
2018-04-12T05:10:30.225Z,12.40
2018-04-12T05:12:57.091Z,12.50
2018-04-12T05:15:24.034Z,12.50
2018-04-12T05:17:50.956Z,12.50
2018-04-12T05:20:17.806Z,12.40
2018-04-12T05:22:44.791Z,12.40
2018-04-12T05:25:11.650Z,12.20
2018-04-12T05:27:39.624Z,12.20
2018-04-12T05:30:06.915Z,12.20
2018-04-12T05:32:33.856Z,12.40
2018-04-12T05:35:01.955Z,12.50
2018-04-12T05:37:30.853Z,12.50
2018-04-12T05:39:58.893Z,12.70
2018-04-12T05:42:35.183Z,12.70
2018-04-12T05:45:04.073Z,12.50
2018-04-12T05:47:31.026Z,12.70
2018-04-12T05:49:57.972Z,12.90
2018-04-12T05:52:24.844Z,12.80
2018-04-12T05:54:51.777Z,13.00
2018-04-12T05:57:18.710Z,12.90
2018-04-12T05:59:45.587Z,12.90
2018-04-12T06:02:12.448Z,13.00
2018-04-12T06:04:39.382Z,13.50
2018-04-12T06:07:06.252Z,13.50
2018-04-12T06:09:33.110Z,13.70
2018-04-12T06:12:00.041Z,13.90
2018-04-12T06:14:27.014Z,14.10
2018-04-12T06:16:53.905Z,14.20
2018-04-12T06:19:20.838Z,14.30
2018-04-12T06:21:47.689Z,14.80
2018-04-12T06:24:14.622Z,15.20
2018-04-12T06:26:41.545Z,15.50
2018-04-12T06:29:08.458Z,15.50
2018-04-12T06:31:36.178Z,16.00
2018-04-12T06:34:03.127Z,16.00
2018-04-12T06:36:30.032Z,16.00
2018-04-12T06:38:56.976Z,16.30
2018-04-12T06:41:23.850Z,16.80
2018-04-12T06:43:50.919Z,17.90
2018-04-12T06:46:17.845Z,18.70
2018-04-12T06:48:44.771Z,18.50
2018-04-12T06:51:11.726Z,17.90
2018-04-12T06:53:38.581Z,17.00
2018-04-12T06:56:05.541Z,16.60
2018-04-12T06:58:32.468Z,16.40
2018-04-12T07:00:59.337Z,16.20
2018-04-12T07:03:26.219Z,16.00
2018-04-12T07:05:53.882Z,16.90
2018-04-12T07:08:20.789Z,16.90
2018-04-12T07:10:47.721Z,18.00
2018-04-12T07:13:14.657Z,18.60
2018-04-12T07:15:41.512Z,18.60
2018-04-12T07:18:08.515Z,19.20
2018-04-12T07:20:36.175Z,21.30
2018-04-12T07:23:03.799Z,23.00
2018-04-12T07:25:30.801Z,22.90
2018-04-12T07:27:57.648Z,23.60
2018-04-12T07:30:24.556Z,25.00
2018-04-12T07:32:51.482Z,25.50
2018-04-12T07:35:18.346Z,25.80
2018-04-12T07:37:45.311Z,26.90
2018-04-12T07:40:12.294Z,27.70
2018-04-12T07:42:39.149Z,28.20
2018-04-12T07:45:06.009Z,28.10
2018-04-12T07:47:32.923Z,27.80
2018-04-12T07:49:59.785Z,27.60
2018-04-12T07:52:26.700Z,27.70
2018-04-12T07:54:53.616Z,28.20
2018-04-12T07:57:20.707Z,25.80
2018-04-12T07:59:47.626Z,25.30
2018-04-12T08:02:15.216Z,24.50
2018-04-12T08:04:42.129Z,24.50
2018-04-12T08:07:09.110Z,25.10
2018-04-12T08:09:35.958Z,22.80
2018-04-12T08:12:02.900Z,25.30
2018-04-12T08:14:29.810Z,23.80
2018-04-12T08:16:57.509Z,26.30
2018-04-12T08:19:24.411Z,26.20
2018-04-12T08:21:51.307Z,28.20
2018-04-12T08:24:18.238Z,28.10
2018-04-12T08:26:45.088Z,30.70
2018-04-12T08:29:12.006Z,31.50
2018-04-12T08:31:38.937Z,29.60
2018-04-12T08:34:05.853Z,30.70
2018-04-12T08:36:32.776Z,31.10
2018-04-12T08:38:59.618Z,31.40
2018-04-12T08:41:26.530Z,33.00
2018-04-12T08:43:54.130Z,31.40
2018-04-12T08:46:21.047Z,31.40
2018-04-12T08:48:47.892Z,33.80
2018-04-12T08:51:14.823Z,33.20
2018-04-12T08:53:41.665Z,30.60
2018-04-12T08:56:08.518Z,29.10
2018-04-12T08:58:36.176Z,31.20
2018-04-12T09:01:03.045Z,31.20
2018-04-12T09:03:29.962Z,31.00
2018-04-12T09:05:57.560Z,30.00
2018-04-12T09:08:24.475Z,30.00
2018-04-12T09:10:52.153Z,30.20
2018-04-12T09:13:19.000Z,30.20
2018-04-12T09:15:45.935Z,30.90
2018-04-12T09:18:13.531Z,29.50
2018-04-12T09:20:40.437Z,29.50
2018-04-12T09:23:08.021Z,28.20
2018-04-12T09:25:34.938Z,28.20
2018-04-12T09:28:02.533Z,27.80
2018-04-12T09:30:29.511Z,27.80
2018-04-12T09:32:56.374Z,26.90
2018-04-12T09:35:23.306Z,26.20
2018-04-12T09:37:50.229Z,26.70
2018-04-12T09:40:17.081Z,28.40
2018-04-12T09:42:43.995Z,27.40
2018-04-12T09:45:10.926Z,26.90
2018-04-12T09:47:37.769Z,27.60
2018-04-12T09:50:04.642Z,28.50
2018-04-12T09:52:31.551Z,28.40
2018-04-12T09:54:59.219Z,26.90
2018-04-12T09:57:26.818Z,25.90
2018-04-12T09:59:53.726Z,25.80
2018-04-12T10:02:26.717Z,25.90
2018-04-12T10:04:55.395Z,24.80
2018-04-12T10:07:22.386Z,24.70
2018-04-12T10:09:49.241Z,25.40
2018-04-12T10:12:16.157Z,25.40
2018-04-12T10:14:43.020Z,25.20
2018-04-12T10:17:09.933Z,23.60
2018-04-12T10:19:37.530Z,24.10
2018-04-12T10:22:04.460Z,24.10
2018-04-12T10:24:31.313Z,24.60
2018-04-12T10:26:58.230Z,24.60
2018-04-12T10:29:25.891Z,24.40
2018-04-12T10:31:52.880Z,24.30
2018-04-12T10:34:19.805Z,25.00
2018-04-12T10:36:46.727Z,25.40
2018-04-12T10:39:14.327Z,25.60
2018-04-12T10:41:41.342Z,25.60
2018-04-12T10:44:08.286Z,25.80
2018-04-12T10:46:35.987Z,25.50
2018-04-12T10:49:02.855Z,25.40
2018-04-12T10:51:29.842Z,25.80
2018-04-12T10:53:57.490Z,26.20
2018-04-12T10:56:24.465Z,26.10
2018-04-12T10:58:51.463Z,26.10
2018-04-12T11:01:18.392Z,26.00
2018-04-12T11:03:45.257Z,26.10
2018-04-12T11:06:12.177Z,26.30
2018-04-12T11:08:39.100Z,26.30
2018-04-12T11:11:06.014Z,26.60
2018-04-12T11:13:33.746Z,27.40
2018-04-12T11:16:00.597Z,27.40
2018-04-12T11:18:27.584Z,27.90
2018-04-12T11:20:55.168Z,28.10
2018-04-12T11:23:22.026Z,28.10
2018-04-12T11:25:48.980Z,28.20
2018-04-12T11:28:15.860Z,28.10
2018-04-12T11:30:42.785Z,27.90
2018-04-12T11:33:09.708Z,27.40
2018-04-12T11:35:36.559Z,27.10
2018-04-12T11:38:09.817Z,27.00
2018-04-12T11:40:37.360Z,26.80
2018-04-12T11:43:05.023Z,27.20
2018-04-12T11:45:32.626Z,27.00
2018-04-12T11:47:59.493Z,27.00
2018-04-12T11:50:26.413Z,27.20
2018-04-12T11:52:54.339Z,27.20
2018-04-12T11:55:21.274Z,27.20
2018-04-12T11:57:48.193Z,27.20
2018-04-12T12:00:15.043Z,27.20
2018-04-12T12:02:41.960Z,27.30
2018-04-12T12:05:08.813Z,27.50
2018-04-12T12:07:35.741Z,27.50
2018-04-12T12:10:16.300Z,27.30
2018-04-12T12:12:45.517Z,27.30
2018-04-12T12:15:13.970Z,27.30
2018-04-12T12:17:47.267Z,27.50
2018-04-12T12:20:31.380Z,27.40
2018-04-12T12:23:10.960Z,27.40
2018-04-12T12:25:47.219Z,27.40
2018-04-12T12:28:25.283Z,27.30
2018-04-12T12:30:54.606Z,27.20
2018-04-12T12:33:32.788Z,27.20
2018-04-12T12:36:12.191Z,27.20
2018-04-12T12:38:40.895Z,27.10
2018-04-12T12:41:11.805Z,26.90
2018-04-12T12:43:38.834Z,26.90
2018-04-12T12:46:06.600Z,26.50
2018-04-12T12:48:36.732Z,26.20
2018-04-12T12:51:04.185Z,26.20
2018-04-12T12:53:39.870Z,26.10
2018-04-12T12:56:09.165Z,26.00
2018-04-12T12:58:37.989Z,25.60
2018-04-12T13:01:07.557Z,25.60
2018-04-12T13:03:34.542Z,25.50
2018-04-12T13:06:01.509Z,25.20
2018-04-12T13:08:28.437Z,25.10
2018-04-12T13:10:55.397Z,25.00
2018-04-12T13:13:22.301Z,24.80
2018-04-12T13:15:49.227Z,24.80
2018-04-12T13:18:16.824Z,24.80
2018-04-12T13:20:43.778Z,24.80
2018-04-12T13:23:10.645Z,24.80
2018-04-12T13:25:37.516Z,24.70
2018-04-12T13:28:05.245Z,24.60
2018-04-12T13:30:32.173Z,24.60
2018-04-12T13:32:59.130Z,24.60
2018-04-12T13:35:25.997Z,24.60
2018-04-12T13:37:52.918Z,24.50
2018-04-12T13:40:19.782Z,24.50
2018-04-12T13:42:46.761Z,24.50
2018-04-12T13:45:13.649Z,24.40
2018-04-12T13:47:52.686Z,24.30
2018-04-12T13:50:20.073Z,24.10
2018-04-12T13:52:47.169Z,24.10
2018-04-12T13:55:14.099Z,24.20
2018-04-12T13:57:43.057Z,24.20
2018-04-12T14:00:09.939Z,24.10
2018-04-12T14:02:36.815Z,24.10
2018-04-12T14:05:03.844Z,24.20
2018-04-12T14:07:38.850Z,24.20
2018-04-12T14:10:07.144Z,24.30
2018-04-12T14:12:37.294Z,24.30
2018-04-12T14:15:04.438Z,24.50
2018-04-12T14:17:31.321Z,24.50
2018-04-12T14:19:58.246Z,24.50
2018-04-12T14:25:15.918Z,24.80
2018-04-12T14:27:44.131Z,24.80
2018-04-12T14:30:11.225Z,24.80
2018-04-12T14:32:38.071Z,24.50
2018-04-12T14:35:04.940Z,24.40
2018-04-12T14:37:32.611Z,24.00
2018-04-12T14:40:00.345Z,24.00
2018-04-12T14:42:27.264Z,24.00
2018-04-12T14:44:54.146Z,24.00
2018-04-12T14:47:21.038Z,24.00
2018-04-12T14:49:47.989Z,24.20
2018-04-12T14:52:14.905Z,24.20
2018-04-12T14:54:42.566Z,24.20
2018-04-12T14:57:10.237Z,24.30
2018-04-12T14:59:37.847Z,24.30
2018-04-12T15:02:04.792Z,24.20
2018-04-12T15:04:31.645Z,24.20
2018-04-12T15:06:58.525Z,24.20
2018-04-12T15:09:26.199Z,24.20
2018-04-12T15:11:53.177Z,24.20
2018-04-12T15:14:20.034Z,24.40
2018-04-12T15:16:46.957Z,24.50
2018-04-12T15:19:13.885Z,24.70
2018-04-12T15:21:40.733Z,24.80
2018-04-12T15:24:07.685Z,24.80
2018-04-12T15:26:42.396Z,24.60
2018-04-12T15:29:17.173Z,24.30
2018-04-12T15:31:46.549Z,24.00
2018-04-12T15:34:18.067Z,23.90
2018-04-12T15:36:47.154Z,23.60
2018-04-12T15:39:14.064Z,23.50
2018-04-12T15:41:48.337Z,23.40
2018-04-12T15:44:15.688Z,23.30
2018-04-12T15:46:43.351Z,23.10
2018-04-12T15:49:10.289Z,23.00
2018-04-12T15:51:37.280Z,22.90
2018-04-12T15:54:04.167Z,22.80
2018-04-12T15:56:31.162Z,22.80
2018-04-12T15:58:58.076Z,22.80
2018-04-12T16:01:25.052Z,22.80
2018-04-12T16:03:51.957Z,22.90
2018-04-12T16:06:18.804Z,22.90
2018-04-12T16:08:45.776Z,22.90
2018-04-12T16:11:13.369Z,22.80
2018-04-12T16:13:50.376Z,22.80
2018-04-12T16:16:17.361Z,22.80
2018-04-12T16:18:49.310Z,22.70
2018-04-12T16:21:17.023Z,22.70
2018-04-12T16:23:43.905Z,22.70
2018-04-12T16:26:10.860Z,22.70
2018-04-12T16:28:41.018Z,22.80
2018-04-12T16:31:07.936Z,22.80
2018-04-12T16:33:43.060Z,22.70
2018-04-12T16:36:10.213Z,22.70
2018-04-12T16:38:37.962Z,22.60
2018-04-12T16:41:06.260Z,22.50
2018-04-12T16:43:34.255Z,22.30
2018-04-12T16:46:02.385Z,22.00
2018-04-12T16:48:34.597Z,22.00
2018-04-12T16:51:09.355Z,22.00
2018-04-12T16:53:44.604Z,21.90
2018-04-12T16:56:19.312Z,22.00
2018-04-12T16:58:59.955Z,22.00
2018-04-12T17:01:27.875Z,22.00
2018-04-12T17:03:54.802Z,22.00
2018-04-12T17:06:21.721Z,21.90
2018-04-12T17:08:48.649Z,21.90
2018-04-12T17:11:15.598Z,21.80
2018-04-12T17:13:42.609Z,21.80
2018-04-12T17:16:09.604Z,21.70
2018-04-12T17:18:37.202Z,21.60
2018-04-12T17:21:04.137Z,21.50
2018-04-12T17:23:31.064Z,21.40
2018-04-12T17:25:58.661Z,21.20
2018-04-12T17:28:25.665Z,21.20
2018-04-12T17:30:52.546Z,21.10
2018-04-12T17:33:19.466Z,21.00
2018-04-12T17:35:47.144Z,20.80
2018-04-12T17:38:14.072Z,20.70
2018-04-12T17:40:41.733Z,20.60
2018-04-12T17:43:09.396Z,20.50
2018-04-12T17:45:37.129Z,20.40
2018-04-12T17:48:04.079Z,20.40
2018-04-12T17:50:30.925Z,20.40
2018-04-12T17:52:57.838Z,20.30
2018-04-12T17:55:24.699Z,20.20
2018-04-12T17:57:51.617Z,20.10
2018-04-12T18:00:18.538Z,20.10
2018-04-12T18:02:46.202Z,19.90
2018-04-12T18:05:13.784Z,19.80
2018-04-12T18:07:40.786Z,19.80
2018-04-12T18:10:07.732Z,19.70
2018-04-12T18:12:34.647Z,19.50
2018-04-12T18:15:01.579Z,19.40
2018-04-12T18:17:28.514Z,19.30
2018-04-12T18:19:55.451Z,19.30
2018-04-12T18:22:22.369Z,19.20
2018-04-12T18:24:49.274Z,19.20
2018-04-12T18:27:16.193Z,19.00
2018-04-12T18:29:43.130Z,19.00
2018-04-12T18:32:09.993Z,18.90
2018-04-12T18:34:36.865Z,18.90
2018-04-12T18:37:03.814Z,18.80
2018-04-12T18:39:30.734Z,18.80
2018-04-12T18:41:57.715Z,18.60
2018-04-12T18:44:24.576Z,18.60
2018-04-12T18:46:52.282Z,18.50
2018-04-12T18:49:19.142Z,18.40
2018-04-12T18:51:46.061Z,18.40
2018-04-12T18:54:12.916Z,18.40
2018-04-12T18:56:39.841Z,18.40
2018-04-12T18:59:06.761Z,18.40
2018-04-12T19:01:33.618Z,18.40
2018-04-12T19:04:01.314Z,18.30
2018-04-12T19:06:28.201Z,18.30
2018-04-12T19:08:55.121Z,18.30
2018-04-12T19:11:21.983Z,18.30
2018-04-12T19:13:48.921Z,18.30
2018-04-12T19:16:15.875Z,18.20
2018-04-12T19:18:42.727Z,18.10
2018-04-12T19:21:09.660Z,17.90
2018-04-12T19:23:36.581Z,17.80
2018-04-12T19:26:03.634Z,17.80
2018-04-12T19:28:30.544Z,17.80
2018-04-12T19:30:58.206Z,17.80
2018-04-12T19:33:25.867Z,17.70
2018-04-12T19:35:53.617Z,17.60
2018-04-12T19:38:20.860Z,17.60
2018-04-12T19:40:47.757Z,17.60
2018-04-12T19:43:16.753Z,17.50
2018-04-12T19:45:43.706Z,17.50
2018-04-12T19:48:11.745Z,17.50
2018-04-12T19:50:38.780Z,17.50
2018-04-12T19:53:05.640Z,17.40
2018-04-12T19:55:34.258Z,17.10
2018-04-12T19:58:01.195Z,17.10
2018-04-12T20:00:28.120Z,17.10
2018-04-12T20:02:55.781Z,16.70
2018-04-12T20:05:23.466Z,16.70
2018-04-12T20:07:50.427Z,16.70
2018-04-12T20:10:17.310Z,16.70
2018-04-12T20:12:44.237Z,16.60
2018-04-12T20:15:11.110Z,16.70
2018-04-12T20:17:38.097Z,16.70
2018-04-12T20:20:15.377Z,16.70
2018-04-12T20:22:43.847Z,16.70
2018-04-12T20:25:21.736Z,16.70
2018-04-12T20:27:49.918Z,16.60
2018-04-12T20:30:28.703Z,16.60
2018-04-12T20:33:05.979Z,16.60
2018-04-12T20:35:45.258Z,16.50
2018-04-12T20:38:12.874Z,16.30
2018-04-12T20:40:52.450Z,16.20
2018-04-12T20:43:20.001Z,16.20
2018-04-12T20:45:46.934Z,16.10
2018-04-12T20:48:24.567Z,16.10
2018-04-12T20:50:53.772Z,16.00
2018-04-12T20:53:30.705Z,16.00
2018-04-12T20:56:10.018Z,16.00
2018-04-12T20:58:48.554Z,16.00
2018-04-12T21:01:27.873Z,16.00
2018-04-12T21:04:06.729Z,15.90
2018-04-12T21:06:38.441Z,15.80
2018-04-12T21:09:05.785Z,15.70
2018-04-12T21:11:36.060Z,15.50
2018-04-12T21:14:03.161Z,15.50
2018-04-12T21:16:30.766Z,15.30
2018-04-12T21:18:57.631Z,15.30
2018-04-12T21:21:24.550Z,15.30
2018-04-12T21:23:51.485Z,15.30
2018-04-12T21:26:18.443Z,15.30
2018-04-12T21:28:45.379Z,15.30
2018-04-12T21:31:12.320Z,15.30
2018-04-12T21:33:39.174Z,15.20
2018-04-12T21:36:06.114Z,15.20
2018-04-12T21:38:33.074Z,15.30
2018-04-12T21:41:00.009Z,15.30
2018-04-12T21:43:26.965Z,15.40
2018-04-12T21:45:53.931Z,15.40
2018-04-12T21:48:20.939Z,15.50
2018-04-12T21:50:47.830Z,15.60
2018-04-12T21:53:14.774Z,15.60
2018-04-12T21:55:41.666Z,15.70
2018-04-12T21:58:08.595Z,15.70
2018-04-12T22:00:36.334Z,15.80
2018-04-12T22:03:03.314Z,15.80
2018-04-12T22:05:30.262Z,15.80
2018-04-12T22:07:57.867Z,15.80
2018-04-12T22:10:24.740Z,15.80
2018-04-12T22:12:51.657Z,15.70
2018-04-12T22:15:18.516Z,15.80
2018-04-12T22:17:45.491Z,15.70
2018-04-12T22:20:12.413Z,15.80
2018-04-12T22:22:39.267Z,15.80
2018-04-12T22:25:06.206Z,15.80
2018-04-12T22:27:33.137Z,15.70
2018-04-12T22:29:59.992Z,15.70
2018-04-12T22:32:26.906Z,15.70
2018-04-12T22:34:53.821Z,15.60
2018-04-12T22:37:20.797Z,15.50
2018-04-12T22:39:47.645Z,15.50
2018-04-12T22:42:14.641Z,15.40
2018-04-12T22:44:41.507Z,15.40
2018-04-12T22:47:08.516Z,15.30
2018-04-12T22:49:35.442Z,15.20
2018-04-12T22:52:02.321Z,15.10
2018-04-12T22:54:29.241Z,15.00
2018-04-12T22:56:56.177Z,14.90
2018-04-12T22:59:23.158Z,14.80
2018-04-12T23:01:50.023Z,14.70
2018-04-12T23:04:17.772Z,14.60
2018-04-12T23:06:45.383Z,14.60
2018-04-12T23:09:12.317Z,14.60
2018-04-12T23:11:39.185Z,14.60
2018-04-12T23:14:06.036Z,14.60
2018-04-12T23:16:32.969Z,14.50
2018-04-12T23:19:00.948Z,14.60
2018-04-12T23:21:28.972Z,14.50
2018-04-12T23:23:57.327Z,14.40
2018-04-12T23:26:25.389Z,14.30
2018-04-12T23:28:53.699Z,14.20
2018-04-12T23:31:21.219Z,14.10
2018-04-12T23:33:49.331Z,14.10
2018-04-12T23:36:19.101Z,14.00
2018-04-12T23:38:49.795Z,13.90
2018-04-12T23:41:17.952Z,13.90
2018-04-12T23:43:45.716Z,13.90
2018-04-12T23:46:13.892Z,13.90
2018-04-12T23:48:40.902Z,13.90
2018-04-12T23:51:07.819Z,13.90
2018-04-12T23:53:34.676Z,14.00
2018-04-12T23:56:01.600Z,13.90
2018-04-12T23:58:29.454Z,13.80
